La Honda, CA (94020)

5:27 AM PST on February 13, 2016 (GMT -0800)
Tar water creek ridge on Alpine Road, La Honda | | Change Station
CLOSE
Current Station
Personal Weather Station
Location: La Honda, CA
Elevation: 1276 ft
Nearby Weather Stations

Elev 1276 ft 37.29 °N, 122.23 °W | Updated 5 minutes ago

Mostly Cloudy
Mostly Cloudy
45.7 °F
Feels Like 46 °F
N
0.0
Wind Variable Wind from NNW
Gusts 3.0 mph

Today
High -- | Low -- °F
--% Chance of Precip.
Yesterday
High -- | Low -- °F
Precip. -- in
Pressure 30.25 in
Visibility 3.0 miles
Clouds Overcast 300 ft
Windchill 46 °F
Dew Point 45 °F
Humidity 98%
Rainfall 0.00 in
Snow Depth Not available.
7:00 AM 5:46 PM
Waxing Crescent, 30% visible
SPECI KNUQ 131311Z 00000KT 3SM BR OVC003 12/11 A3025 RMK AO2 T01170111
Pressure 30.25 in
Visibility 3.0 miles
Clouds Overcast 300 ft
Windchill 46 °F
Dew Point 45 °F
Humidity 98%
Rainfall 0.00 in
Snow Depth Not available.
7:00 AM 5:46 PM
Waxing Crescent, 30% visible
SPECI KNUQ 131311Z 00000KT 3SM BR OVC003 12/11 A3025 RMK AO2 T01170111

10-Day Weather Forecast

Almanac

Astronomy

Feb. 13, 2016 Rise Set
Actual Time
Civil Twilight
Nautical Twilight
Astronomical Twilight
Moon
Length of Visible Light
Length of Day
Tomorrow will be .
, % of the Moon is Illuminated

Today's Extremes

State Highs State Lows

Community

WunderPhotos

Upload Photos

1,892,547 photos uploaded!

WunderBlog® & News

Nearby

Air Quality

  Air Quality AQ Index Pollutant
Not available.

Snow Depth

Station Depth Elevation

Earthquake Activity

City Distance Mag. Time & Date
Minimum magnitude displayed is 2.5.

Coastal Water Temperatures

Place Temperature

Stations

Nearby Weather Stations

Station Location Temp. Windchill Dew Point Humidity Wind Precip. Elev Updated Type
                   

Watches & Warnings

There are currently no watches in effect.